Time;durP1;ratioP1;P1;durP2;ratioP2;P2;SDS_P1;SDS_P2;PMS_P1;PMS_P2;Temp;Humidity;BMP_temperature;BMP_pressure;BME280_temperature;BME280_humidity;BME280_pressure;Samples;Min_cycle;Max_cycle;Signal;HPM_P1;HPM_P2
2023/08/14 00:00:34;;;;;;;4.47;4.07;;;19.40;1.00;;;;;;8325877;28;20182;-64
2023/08/14 00:04:35;;;;;;;4.30;4.00;;;19.30;1.00;;;;;;8330295;28;20213;-64
2023/08/14 00:08:36;;;;;;;4.73;4.33;;;19.30;1.00;;;;;;8328178;28;20206;-63
2023/08/14 00:12:36;;;;;;;4.20;3.80;;;19.20;1.00;;;;;;8327484;28;20187;-64
2023/08/14 00:16:37;;;;;;;4.50;4.10;;;19.20;5.20;;;;;;8327944;28;20194;-64
2023/08/14 00:20:38;;;;;;;4.00;3.67;;;19.20;13.40;;;;;;8329259;28;20205;-63
2023/08/14 00:24:40;;;;;;;4.30;3.90;;;19.00;52.10;;;;;;8330504;28;20210;-62
2023/08/14 00:28:41;;;;;;;7.57;4.40;;;18.90;99.90;;;;;;8321464;28;20643;-64
2023/08/14 00:32:42;;;;;;;5.17;4.67;;;18.80;99.90;;;;;;8345392;28;20188;-63
2023/08/14 00:36:43;;;;;;;4.83;4.43;;;18.90;99.90;;;;;;8325830;28;20190;-64
2023/08/14 00:40:43;;;;;;;6.83;4.80;;;19.00;99.90;;;;;;8330040;28;20296;-63
2023/08/14 00:44:44;;;;;;;4.63;4.20;;;19.10;99.90;;;;;;8340474;28;20371;-62
2023/08/14 00:48:46;;;;;;;4.73;3.97;;;19.20;99.90;;;;;;8326529;28;20182;-62
2023/08/14 00:52:48;;;;;;;5.47;4.90;;;19.20;99.90;;;;;;8327195;28;20183;-64
2023/08/14 00:56:49;;;;;;;5.20;4.13;;;19.30;99.90;;;;;;8323287;28;20190;-63
2023/08/14 01:00:50;;;;;;;7.30;4.50;;;19.30;99.90;;;;;;8321809;28;20222;-63
2023/08/14 01:04:51;;;;;;;4.90;4.50;;;19.40;99.90;;;;;;8317630;28;20214;-63
2023/08/14 01:08:52;;;;;;;8.67;4.87;;;19.50;99.90;;;;;;8325170;28;20212;-63
2023/08/14 01:13:04;;;;;;;7.00;5.33;;;19.60;99.90;;;;;;8324242;28;20186;-62
2023/08/14 01:17:10;;;;;;;5.87;4.77;;;19.70;99.90;;;;;;8330038;28;20287;-63
2023/08/14 01:21:17;;;;;;;5.03;4.27;;;19.70;74.00;;;;;;8325388;28;20186;-64
2023/08/14 01:25:31;;;;;;;4.90;4.20;;;19.60;54.80;;;;;;8340368;28;20214;-63
2023/08/14 01:29:33;;;;;;;4.57;4.17;;;19.60;91.60;;;;;;8323756;28;20178;-64
2023/08/14 01:33:34;;;;;;;6.20;4.30;;;19.70;98.60;;;;;;8325071;28;20186;-64
2023/08/14 01:37:52;;;;;;;5.73;4.77;;;19.70;92.00;;;;;;8326109;28;20265;-63
2023/08/14 01:42:11;;;;;;;5.63;4.07;;;19.70;65.10;;;;;;8330508;28;20258;-63
2023/08/14 01:46:14;;;;;;;4.30;3.90;;;19.60;18.90;;;;;;8292373;28;1331507;-63
2023/08/14 01:50:16;;;;;;;4.97;4.30;;;19.40;40.10;;;;;;8341739;28;20200;-62
2023/08/14 01:54:17;;;;;;;5.17;4.67;;;19.30;99.90;;;;;;8330474;28;20195;-63
2023/08/14 01:58:17;;;;;;;4.53;4.13;;;19.20;99.90;;;;;;8323049;28;20191;-64
2023/08/14 02:02:18;;;;;;;6.57;4.73;;;19.10;99.90;;;;;;8326725;28;20190;-63
2023/08/14 02:06:19;;;;;;;4.40;4.00;;;18.90;99.90;;;;;;8320935;28;20210;-63
2023/08/14 02:10:20;;;;;;;5.13;4.67;;;18.70;99.90;;;;;;8322377;28;20218;-62
2023/08/14 02:14:21;;;;;;;5.50;4.20;;;18.50;1.00;;;;;;8320687;28;20192;-63
2023/08/14 02:18:22;;;;;;;4.70;4.30;;;18.30;1.00;;;;;;8325451;28;20216;-62
2023/08/14 02:22:22;;;;;;;4.70;4.20;;;18.20;99.90;;;;;;8318919;28;20183;-65
2023/08/14 02:26:23;;;;;;;5.17;4.43;;;18.10;99.90;;;;;;8316270;28;20214;-64
2023/08/14 02:30:24;;;;;;;5.00;4.57;;;18.10;1.00;;;;;;8321628;28;20196;-63
2023/08/14 02:34:48;;;;;;;4.77;4.37;;;18.10;1.00;;;;;;8327517;28;20205;-64
2023/08/14 02:38:48;;;;;;;5.53;4.40;;;18.10;91.90;;;;;;8319004;28;20193;-65
2023/08/14 02:42:49;;;;;;;5.80;5.20;;;18.10;99.90;;;;;;8322831;28;20182;-64
2023/08/14 02:46:50;;;;;;;7.13;4.80;;;18.20;99.90;;;;;;8322471;28;20224;-63
2023/08/14 02:50:51;;;;;;;5.67;5.03;;;18.20;13.60;;;;;;8317142;28;20540;-63
2023/08/14 02:54:51;;;;;;;5.83;5.23;;;18.30;99.90;;;;;;8326446;28;20214;-64
2023/08/14 02:58:52;;;;;;;6.10;5.60;;;18.30;1.00;;;;;;8314518;28;20255;-63
2023/08/14 03:02:53;;;;;;;4.90;4.43;;;18.40;99.90;;;;;;8327839;28;20216;-63
2023/08/14 03:06:53;;;;;;;5.47;4.97;;;18.30;1.00;;;;;;8319193;28;20209;-63
2023/08/14 03:10:54;;;;;;;5.23;4.53;;;18.20;22.30;;;;;;8323741;28;20205;-66
2023/08/14 03:14:55;;;;;;;5.20;4.70;;;18.10;99.90;;;;;;8322002;28;20269;-66
2023/08/14 03:18:56;;;;;;;5.13;4.73;;;17.90;99.90;;;;;;8319514;28;20504;-66
2023/08/14 03:22:57;;;;;;;5.20;4.80;;;17.80;99.90;;;;;;8320118;28;20188;-66
2023/08/14 03:26:57;;;;;;;4.30;4.00;;;17.70;1.00;;;;;;8324856;28;20222;-66
2023/08/14 03:30:58;;;;;;;5.30;4.90;;;17.60;99.90;;;;;;8319952;28;20305;-65
2023/08/14 03:34:59;;;;;;;6.00;5.50;;;17.50;99.90;;;;;;8322464;28;20186;-66
2023/08/14 03:39:00;;;;;;;6.10;5.50;;;17.50;99.90;;;;;;8322687;28;20189;-67
2023/08/14 03:43:00;;;;;;;4.93;4.50;;;17.50;1.00;;;;;;8316061;28;20196;-66
2023/08/14 03:47:01;;;;;;;4.93;4.53;;;17.50;99.90;;;;;;8325002;28;20225;-66
2023/08/14 03:51:02;;;;;;;5.90;5.40;;;17.50;99.90;;;;;;8315802;28;20533;-66
2023/08/14 03:55:03;;;;;;;5.57;5.07;;;17.60;99.90;;;;;;8315074;28;20224;-66
2023/08/14 03:59:05;;;;;;;5.57;4.97;;;17.70;90.90;;;;;;8322807;28;20192;-67
2023/08/14 04:03:06;;;;;;;5.73;5.13;;;17.70;99.90;;;;;;8323677;28;20190;-66
2023/08/14 04:07:07;;;;;;;5.30;4.90;;;17.80;99.90;;;;;;8319866;28;20232;-65
2023/08/14 04:11:09;;;;;;;5.47;4.57;;;17.90;1.00;;;;;;8323620;28;20275;-66
2023/08/14 04:15:17;;;;;;;7.70;4.80;;;17.90;99.90;;;;;;8316935;28;20230;-65
2023/08/14 04:19:18;;;;;;;5.10;4.60;;;18.10;1.00;;;;;;8321440;28;20221;-66
2023/08/14 04:23:21;;;;;;;4.70;4.23;;;18.60;99.90;;;;;;8326816;28;20617;-66
2023/08/14 04:27:21;;;;;;;6.00;3.23;;;19.50;1.00;;;;;;8318968;28;20321;-67
2023/08/14 04:31:22;;;;;;;4.17;3.67;;;20.20;99.90;;;;;;8321147;28;20193;-65
2023/08/14 04:35:23;;;;;;;5.50;3.17;;;20.80;99.90;;;;;;8321791;28;20487;-64
2023/08/14 04:39:23;;;;;;;4.53;2.73;;;21.40;68.50;;;;;;8323166;28;20281;-64
2023/08/14 04:43:24;;;;;;;4.70;2.67;;;22.00;1.00;;;;;;8325812;28;20189;-64
2023/08/14 04:47:25;;;;;;;6.33;2.70;;;22.70;1.00;;;;;;8322354;28;20267;-63
2023/08/14 04:51:30;;;;;;;3.23;2.60;;;23.00;1.00;;;;;;8326739;28;20257;-66
2023/08/14 04:55:30;;;;;;;3.90;3.00;;;23.30;1.00;;;;;;8327275;28;20277;-66
2023/08/14 04:59:31;;;;;;;4.10;2.83;;;23.60;1.00;;;;;;8320030;28;20182;-68
2023/08/14 05:03:32;;;;;;;6.03;2.50;;;23.60;1.00;;;;;;8320903;28;20186;-67
2023/08/14 05:07:33;;;;;;;3.27;2.73;;;23.50;1.00;;;;;;8321010;28;20232;-67
2023/08/14 05:11:33;;;;;;;3.60;2.50;;;23.30;1.00;;;;;;8322120;28;20206;-67
2023/08/14 05:15:37;;;;;;;5.03;2.90;;;23.20;1.00;;;;;;8328230;28;20195;-69
2023/08/14 05:19:38;;;;;;;5.50;2.47;;;23.20;1.00;;;;;;8323663;28;20468;-66
2023/08/14 05:23:38;;;;;;;4.53;2.83;;;23.10;1.00;;;;;;8325541;28;20239;-66
2023/08/14 05:27:39;;;;;;;6.60;3.00;;;23.00;1.00;;;;;;8327667;28;20283;-68
2023/08/14 05:31:40;;;;;;;5.07;3.10;;;23.10;1.00;;;;;;8327374;28;20183;-68
2023/08/14 05:35:40;;;;;;;4.50;2.83;;;23.00;1.00;;;;;;8312989;28;20185;-68
2023/08/14 05:39:41;;;;;;;5.17;2.77;;;23.00;1.00;;;;;;8324768;28;20202;-68
2023/08/14 05:43:42;;;;;;;4.33;2.93;;;23.00;1.00;;;;;;8317504;28;20273;-70
2023/08/14 05:47:42;;;;;;;6.53;2.97;;;23.00;1.00;;;;;;8327480;28;20592;-69
2023/08/14 05:51:44;;;;;;;7.50;2.90;;;23.20;1.00;;;;;;8320539;28;20192;-68
2023/08/14 05:55:45;;;;;;;3.37;2.60;;;23.30;1.00;;;;;;8325132;28;21639;-67
2023/08/14 05:59:46;;;;;;;4.67;2.47;;;23.40;1.00;;;;;;8322358;28;20190;-69
2023/08/14 06:03:46;;;;;;;5.27;2.97;;;23.30;1.00;;;;;;8318863;28;20297;-67
2023/08/14 06:07:48;;;;;;;5.13;2.50;;;23.30;1.00;;;;;;8321846;28;20217;-68
2023/08/14 06:11:49;;;;;;;4.03;2.50;;;23.30;1.00;;;;;;8322736;28;20218;-68
2023/08/14 06:15:50;;;;;;;3.03;2.10;;;23.40;1.00;;;;;;8327249;28;20189;-68
2023/08/14 06:19:51;;;;;;;8.80;2.47;;;23.40;1.00;;;;;;8321551;28;20575;-67
2023/08/14 06:23:51;;;;;;;3.03;2.00;;;23.60;1.00;;;;;;8312890;28;20197;-67
2023/08/14 06:27:52;;;;;;;3.97;2.30;;;23.70;1.00;;;;;;8316063;28;20209;-68
2023/08/14 06:31:53;;;;;;;4.67;2.53;;;23.80;1.00;;;;;;8323576;28;20190;-66
2023/08/14 06:35:55;;;;;;;2.97;2.20;;;23.90;1.00;;;;;;8319368;28;20271;-67
2023/08/14 06:39:55;;;;;;;7.47;2.47;;;24.00;1.00;;;;;;8321640;28;20205;-67
2023/08/14 06:43:56;;;;;;;2.70;2.20;;;24.10;1.00;;;;;;8320141;28;20283;-69
2023/08/14 06:47:57;;;;;;;2.67;2.23;;;24.10;1.00;;;;;;8315913;28;20886;-66
2023/08/14 06:51:58;;;;;;;2.80;2.10;;;24.20;1.00;;;;;;8315301;28;20201;-67
2023/08/14 06:55:59;;;;;;;6.73;2.10;;;24.20;1.00;;;;;;8321435;28;20197;-67
2023/08/14 07:00:06;;;;;;;4.47;2.07;;;24.40;1.00;;;;;;8327708;28;20197;-67
2023/08/14 07:04:06;;;;;;;5.13;2.17;;;24.60;1.00;;;;;;8325439;28;20264;-66
2023/08/14 07:08:07;;;;;;;3.07;2.40;;;24.80;1.00;;;;;;8336746;28;20210;-67
2023/08/14 07:12:08;;;;;;;2.97;2.22;;;24.90;99.90;;;;;;8314077;28;20252;-66
2023/08/14 07:16:09;;;;;;;2.50;2.00;;;24.80;99.90;;;;;;8315095;28;20196;-65
2023/08/14 07:20:10;;;;;;;4.45;2.42;;;25.00;99.90;;;;;;8308529;28;21006;-64
2023/08/14 07:24:14;;;;;;;3.92;2.17;;;25.00;99.90;;;;;;8313918;28;20186;-67
2023/08/14 07:28:15;;;;;;;2.88;2.03;;;25.20;99.90;;;;;;8314523;28;20178;-65
2023/08/14 07:32:15;;;;;;;4.38;2.03;;;25.20;99.90;;;;;;8311608;28;20186;-67
2023/08/14 07:36:16;;;;;;;2.63;2.30;;;25.30;99.90;;;;;;8314315;28;20186;-64
2023/08/14 07:40:17;;;;;;;4.15;2.20;;;25.30;99.90;;;;;;8308166;28;20233;-66
2023/08/14 07:44:18;;;;;;;3.28;2.22;;;25.40;99.90;;;;;;8316689;28;20281;-65
2023/08/14 07:48:19;;;;;;;2.25;2.00;;;25.40;99.90;;;;;;8318488;28;20242;-63
2023/08/14 07:52:20;;;;;;;2.80;2.13;;;25.60;99.90;;;;;;8322468;28;20247;-65
2023/08/14 07:56:20;;;;;;;3.95;2.30;;;25.70;99.90;;;;;;8326279;28;20186;-65
2023/08/14 08:00:21;;;;;;;2.70;2.30;;;25.80;99.90;;;;;;8322603;28;20213;-66
2023/08/14 08:04:22;;;;;;;2.47;2.10;;;26.00;99.90;;;;;;8319112;28;20205;-65
2023/08/14 08:08:23;;;;;;;2.67;2.10;;;26.20;99.90;;;;;;8318873;28;20182;-64
2023/08/14 08:12:23;;;;;;;4.32;2.40;;;26.20;99.90;;;;;;8322567;28;20186;-66
2023/08/14 08:16:24;;;;;;;4.20;2.20;;;26.40;99.90;;;;;;8319954;28;20189;-63
2023/08/14 08:20:25;;;;;;;2.50;2.22;;;26.50;99.90;;;;;;8328655;28;20201;-65
2023/08/14 08:24:26;;;;;;;2.40;2.20;;;26.60;99.90;;;;;;8337997;28;20581;-64
2023/08/14 08:28:27;;;;;;;3.95;2.08;;;26.80;99.90;;;;;;8332474;28;20181;-64
2023/08/14 08:32:28;;;;;;;3.03;2.40;;;27.00;99.90;;;;;;8329268;28;20188;-68
2023/08/14 08:36:28;;;;;;;3.05;2.20;;;27.00;99.90;;;;;;8327322;28;20281;-64
2023/08/14 08:40:31;;;;;;;2.33;2.13;;;27.10;99.90;;;;;;8325576;28;20194;-64
2023/08/14 08:44:33;;;;;;;3.13;2.33;;;27.10;99.90;;;;;;8333455;28;20209;-63
2023/08/14 08:48:37;;;;;;;3.33;2.60;;;27.20;99.90;;;;;;8332804;28;20190;-64
2023/08/14 08:52:38;;;;;;;3.22;2.25;;;27.30;99.90;;;;;;8323871;28;20198;-65
2023/08/14 08:56:40;;;;;;;2.47;2.28;;;27.40;99.90;;;;;;8325599;28;20807;-64
2023/08/14 09:00:42;;;;;;;3.50;2.28;;;27.40;99.90;;;;;;8331491;28;20193;-66
2023/08/14 09:04:43;;;;;;;3.15;2.05;;;27.40;99.90;;;;;;8324266;28;20209;-64
2023/08/14 09:08:44;;;;;;;5.28;3.83;;;27.50;99.90;;;;;;8330735;28;20348;-63
2023/08/14 09:12:45;;;;;;;4.10;3.70;;;27.70;99.90;;;;;;8321145;28;20184;-64
2023/08/14 09:16:46;;;;;;;2.58;2.30;;;28.00;99.90;;;;;;8316467;28;20231;-63
2023/08/14 09:20:46;;;;;;;3.83;2.20;;;28.20;99.90;;;;;;8319094;28;20197;-66
2023/08/14 09:24:51;;;;;;;3.97;2.10;;;28.40;99.90;;;;;;8317393;28;20237;-67
2023/08/14 09:28:52;;;;;;;2.95;2.42;;;28.70;99.90;;;;;;8314131;28;20621;-64
2023/08/14 09:32:54;;;;;;;2.92;2.03;;;28.70;99.90;;;;;;8307711;28;20194;-63
2023/08/14 09:36:57;;;;;;;6.40;2.70;;;28.70;99.90;;;;;;8309629;28;20196;-64
2023/08/14 09:40:58;;;;;;;2.40;2.20;;;28.90;99.90;;;;;;8320068;28;20202;-65
2023/08/14 09:45:00;;;;;;;3.60;2.13;;;29.10;99.90;;;;;;8313727;28;20245;-64
2023/08/14 09:49:01;;;;;;;5.32;2.53;;;29.30;99.90;;;;;;8307534;28;20190;-65
2023/08/14 09:53:02;;;;;;;2.22;2.03;;;29.50;99.90;;;;;;8319408;28;20190;-66
2023/08/14 09:57:06;;;;;;;3.13;2.13;;;29.50;99.90;;;;;;8321138;28;20193;-66
2023/08/14 10:01:10;;;;;;;3.10;2.10;;;29.60;99.90;;;;;;8312868;28;20191;-65
2023/08/14 10:05:12;;;;;;;3.55;2.42;;;29.70;99.90;;;;;;8326830;28;20205;-65
2023/08/14 10:09:13;;;;;;;5.72;2.30;;;29.80;99.90;;;;;;8322182;28;20202;-65
2023/08/14 10:13:15;;;;;;;2.50;2.30;;;29.90;99.90;;;;;;8322409;28;20360;-66
2023/08/14 10:17:24;;;;;;;4.85;2.30;;;30.00;99.90;;;;;;8316369;28;20186;-63
2023/08/14 10:21:28;;;;;;;4.40;2.40;;;30.10;99.90;;;;;;8320789;28;20193;-67
2023/08/14 10:25:29;;;;;;;2.30;1.90;;;30.20;99.90;;;;;;8322580;28;20292;-65
2023/08/14 10:29:32;;;;;;;3.63;1.92;;;30.20;99.90;;;;;;8314844;28;20191;-66
2023/08/14 10:33:33;;;;;;;1.95;1.77;;;30.40;99.90;;;;;;8316051;28;20772;-63
2023/08/14 10:37:44;;;;;;;4.00;2.42;;;30.50;99.90;;;;;;8311433;28;20186;-68
2023/08/14 10:41:45;;;;;;;2.55;2.08;;;30.60;99.90;;;;;;8323375;28;20186;-69
2023/08/14 10:45:47;;;;;;;2.45;2.25;;;30.70;99.90;;;;;;8325765;28;20215;-62
2023/08/14 10:49:51;;;;;;;6.28;2.35;;;30.70;99.90;;;;;;8314593;28;20185;-67
2023/08/14 10:54:11;;;;;;;4.70;2.00;;;30.80;99.90;;;;;;8323292;28;20193;-65
2023/08/14 10:58:36;;;;;;;3.80;1.98;;;30.90;99.90;;;;;;8323285;28;20257;-66
2023/08/14 11:02:41;;;;;;;2.78;1.98;;;31.10;99.90;;;;;;8308347;28;20248;-64
2023/08/14 11:06:57;;;;;;;4.25;2.10;;;31.20;99.90;;;;;;8320609;28;20209;-65
2023/08/14 11:10:58;;;;;;;4.60;2.15;;;31.20;99.90;;;;;;8308488;28;20229;-66
2023/08/14 11:14:59;;;;;;;6.30;2.50;;;31.20;99.90;;;;;;8316256;28;20182;-64
2023/08/14 11:19:01;;;;;;;2.58;2.15;;;31.20;99.90;;;;;;8319948;28;20204;-64
2023/08/14 11:23:02;;;;;;;2.75;2.03;;;31.20;99.90;;;;;;8310363;28;20216;-65
2023/08/14 11:27:03;;;;;;;6.50;2.22;;;31.20;99.90;;;;;;8319760;28;20301;-66
2023/08/14 11:31:04;;;;;;;4.63;2.30;;;31.10;99.90;;;;;;8319709;28;20197;-65
2023/08/14 11:35:06;;;;;;;3.67;2.40;;;31.00;99.90;;;;;;8321901;28;20479;-66
2023/08/14 11:39:07;;;;;;;2.22;1.95;;;31.10;99.90;;;;;;8311220;28;20194;-65
2023/08/14 11:43:09;;;;;;;7.18;2.50;;;31.10;99.90;;;;;;8318818;28;20698;-66
2023/08/14 11:47:11;;;;;;;2.55;2.10;;;31.10;99.90;;;;;;8312466;28;20214;-67
2023/08/14 11:51:14;;;;;;;3.35;2.22;;;31.30;99.90;;;;;;8310357;28;20186;-66
2023/08/14 11:55:15;;;;;;;4.88;2.35;;;31.40;99.90;;;;;;8326097;28;20190;-67
2023/08/14 11:59:19;;;;;;;2.85;2.38;;;31.50;99.90;;;;;;8328144;28;20289;-65
2023/08/14 12:03:20;;;;;;;2.88;2.35;;;31.50;99.90;;;;;;8324788;28;20486;-68
2023/08/14 12:07:24;;;;;;;5.53;2.65;;;31.50;99.90;;;;;;8328442;28;20287;-64
2023/08/14 12:11:25;;;;;;;4.25;2.83;;;31.60;99.90;;;;;;8327726;28;20225;-65
2023/08/14 12:15:26;;;;;;;2.75;2.55;;;31.60;99.90;;;;;;8326087;28;20244;-65
2023/08/14 12:19:30;;;;;;;4.45;2.80;;;31.50;99.90;;;;;;8323630;28;20197;-66
2023/08/14 12:23:30;;;;;;;3.67;2.70;;;31.60;99.90;;;;;;8319974;28;20186;-66
2023/08/14 12:27:31;;;;;;;4.22;2.40;;;31.70;99.90;;;;;;8321302;28;20222;-63
2023/08/14 12:31:33;;;;;;;3.95;2.40;;;31.70;99.90;;;;;;8321601;28;20186;-68
2023/08/14 12:35:35;;;;;;;6.05;2.97;;;31.70;99.90;;;;;;8326016;28;20610;-63
2023/08/14 12:39:36;;;;;;;7.50;2.72;;;31.70;99.90;;;;;;8320997;28;20186;-64
2023/08/14 12:43:36;;;;;;;3.83;3.00;;;31.90;99.90;;;;;;8329073;28;20209;-66
2023/08/14 12:47:37;;;;;;;4.80;2.60;;;32.00;99.90;;;;;;8322940;28;20210;-65
2023/08/14 12:51:41;;;;;;;7.05;2.80;;;32.10;99.90;;;;;;8321062;28;20353;-65
2023/08/14 12:55:44;;;;;;;4.32;2.88;;;32.00;99.90;;;;;;8336740;28;20311;-65
2023/08/14 12:59:45;;;;;;;4.30;3.10;;;31.90;99.90;;;;;;8324771;28;20186;-64
2023/08/14 13:03:45;;;;;;;4.82;2.85;;;32.10;99.90;;;;;;8325791;28;20228;-64
2023/08/14 13:07:47;;;;;;;5.68;3.65;;;32.20;99.90;;;;;;8324469;28;20213;-65
2023/08/14 13:11:49;;;;;;;3.50;2.88;;;32.60;99.90;;;;;;8320653;28;20239;-62
2023/08/14 13:15:50;;;;;;;4.63;2.95;;;32.90;99.90;;;;;;8317649;28;20242;-64
2023/08/14 13:19:52;;;;;;;3.90;3.30;;;33.30;99.90;;;;;;8316325;28;20201;-64
2023/08/14 13:23:53;;;;;;;10.63;3.42;;;33.50;99.90;;;;;;8319016;28;20197;-64
2023/08/14 13:27:54;;;;;;;5.05;3.20;;;33.50;99.90;;;;;;8322430;28;20467;-65
2023/08/14 13:31:54;;;;;;;3.97;3.05;;;33.70;99.90;;;;;;8321356;28;20186;-67
2023/08/14 13:35:55;;;;;;;7.05;3.60;;;33.80;99.90;;;;;;8315374;28;20186;-66
2023/08/14 13:39:56;;;;;;;5.50;3.40;;;33.70;99.90;;;;;;8316842;28;20190;-66
2023/08/14 13:43:57;;;;;;;6.22;3.33;;;33.20;99.90;;;;;;8318221;28;20345;-66
2023/08/14 13:47:58;;;;;;;3.65;3.10;;;32.80;99.90;;;;;;8317707;28;20241;-65
2023/08/14 13:51:58;;;;;;;3.78;3.38;;;32.60;99.90;;;;;;8316276;28;20182;-64
2023/08/14 13:55:59;;;;;;;4.85;3.20;;;32.40;99.90;;;;;;8314257;28;20584;-66
2023/08/14 14:00:03;;;;;;;3.83;2.88;;;32.00;99.90;;;;;;8319385;28;20248;-64
2023/08/14 14:04:04;;;;;;;5.57;3.13;;;31.60;99.90;;;;;;8319007;28;20221;-68
2023/08/14 14:08:06;;;;;;;31.65;6.45;;;31.20;99.90;;;;;;8307929;28;20214;-68
2023/08/14 14:58:21;;;;;;;4.53;3.53;;;19.50;99.90;;;;;;8373403;27;20397;-68
2023/08/14 15:02:21;;;;;;;7.90;5.63;;;19.40;99.90;;;;;;8385147;28;20656;-67
2023/08/14 15:06:22;;;;;;;5.93;4.57;;;19.70;99.90;;;;;;8405237;28;20227;-67
2023/08/14 15:10:23;;;;;;;4.43;4.03;;;19.90;99.90;;;;;;8376420;28;20208;-67
2023/08/14 15:14:24;;;;;;;5.80;4.17;;;20.00;99.90;;;;;;8383120;28;20539;-67
2023/08/14 15:18:25;;;;;;;7.03;3.93;;;20.20;99.90;;;;;;8392399;28;20180;-68
2023/08/14 15:22:25;;;;;;;3.63;3.10;;;20.30;99.90;;;;;;8382601;28;20205;-68
2023/08/14 15:26:26;;;;;;;3.60;3.30;;;20.40;99.90;;;;;;8392756;28;20217;-65
2023/08/14 15:30:27;;;;;;;4.10;3.40;;;20.60;99.90;;;;;;8380373;28;20232;-68
2023/08/14 15:34:28;;;;;;;4.20;3.00;;;20.90;99.90;;;;;;8382698;28;20182;-70
2023/08/14 15:38:29;;;;;;;5.20;2.90;;;21.10;99.90;;;;;;8387346;28;20181;-71
2023/08/14 15:42:30;;;;;;;3.77;2.80;;;21.30;99.90;;;;;;8380517;28;20200;-68
2023/08/14 15:46:31;;;;;;;4.70;2.80;;;21.30;99.90;;;;;;8378738;28;20219;-67
2023/08/14 15:50:31;;;;;;;3.00;2.70;;;21.40;99.90;;;;;;8374885;28;20267;-69
2023/08/14 15:54:32;;;;;;;2.97;2.67;;;21.80;99.90;;;;;;8383756;28;20312;-67
2023/08/14 15:58:33;;;;;;;3.10;2.80;;;22.10;99.90;;;;;;8379017;28;20189;-66
2023/08/14 16:02:34;;;;;;;3.17;2.87;;;22.40;99.90;;;;;;8365351;28;20309;-65
2023/08/14 16:06:35;;;;;;;3.37;3.03;;;22.60;99.90;;;;;;8373148;28;20221;-65
2023/08/14 16:10:36;;;;;;;3.00;2.70;;;22.60;99.90;;;;;;8357187;28;20598;-66
2023/08/14 16:14:37;;;;;;;4.47;2.93;;;22.60;99.90;;;;;;8356916;28;20198;-68
2023/08/14 16:18:37;;;;;;;4.97;3.00;;;22.70;99.90;;;;;;8356685;28;20177;-66
2023/08/14 16:22:39;;;;;;;3.90;3.23;;;22.70;99.90;;;;;;8382365;28;20208;-66
2023/08/14 16:26:39;;;;;;;4.60;3.47;;;22.80;99.90;;;;;;8359663;28;20235;-66
2023/08/14 16:30:40;;;;;;;5.57;3.20;;;22.90;99.90;;;;;;8356734;28;20181;-68
2023/08/14 16:34:41;;;;;;;5.57;3.60;;;23.20;99.90;;;;;;8359763;28;20193;-67
2023/08/14 16:38:42;;;;;;;3.33;2.90;;;23.40;99.90;;;;;;8357216;28;20181;-67
2023/08/14 16:42:43;;;;;;;3.07;2.77;;;23.80;99.90;;;;;;8357589;28;20186;-66
2023/08/14 16:46:43;;;;;;;2.70;2.50;;;24.00;99.90;;;;;;8361893;28;20217;-64
2023/08/14 16:50:44;;;;;;;3.07;2.57;;;24.00;99.90;;;;;;8355997;28;20574;-66
2023/08/14 16:54:45;;;;;;;3.53;2.40;;;23.90;99.90;;;;;;8354631;28;20198;-65
2023/08/14 16:58:46;;;;;;;2.50;2.13;;;23.80;99.90;;;;;;8355981;28;20192;-71
2023/08/14 17:02:46;;;;;;;3.27;2.60;;;23.90;99.90;;;;;;8356404;28;20189;-70
2023/08/14 17:06:47;;;;;;;3.00;2.50;;;23.90;99.90;;;;;;8353374;28;20217;-70
2023/08/14 17:10:50;;;;;;;2.67;2.47;;;23.80;99.90;;;;;;8350026;28;20203;-65
2023/08/14 17:14:51;;;;;;;3.33;2.70;;;23.80;99.90;;;;;;8350775;28;20217;-65
2023/08/14 17:18:51;;;;;;;9.07;8.30;;;23.80;99.90;;;;;;8346098;28;20185;-65
2023/08/14 17:22:52;;;;;;;6.47;5.87;;;23.60;99.90;;;;;;8349904;28;20185;-65
2023/08/14 17:26:53;;;;;;;4.63;4.00;;;23.50;99.90;;;;;;8368626;28;20267;-64
2023/08/14 17:30:57;;;;;;;4.30;3.40;;;23.40;99.90;;;;;;8343814;28;20300;-64
2023/08/14 17:34:58;;;;;;;3.63;3.33;;;23.20;99.90;;;;;;8349607;28;20341;-67
2023/08/14 17:39:00;;;;;;;4.70;3.20;;;23.10;99.90;;;;;;8349674;28;20192;-66
2023/08/14 17:43:00;;;;;;;5.83;3.07;;;22.80;99.90;;;;;;8359320;28;20296;-66
2023/08/14 17:47:01;;;;;;;3.47;3.17;;;22.70;99.90;;;;;;8352717;28;20220;-64
2023/08/14 17:51:02;;;;;;;3.87;2.90;;;22.40;99.90;;;;;;8352483;28;20295;-66
2023/08/14 17:55:03;;;;;;;2.93;2.73;;;22.20;99.90;;;;;;8346579;28;20536;-64
2023/08/14 17:59:03;;;;;;;3.00;2.80;;;22.10;99.90;;;;;;8339728;28;20205;-65
2023/08/14 18:03:05;;;;;;;4.53;3.53;;;21.90;99.90;;;;;;8361462;28;20485;-64
2023/08/14 18:07:05;;;;;;;3.27;3.00;;;21.80;99.90;;;;;;8359869;28;20205;-64
2023/08/14 18:11:06;;;;;;;4.20;3.80;;;21.60;99.90;;;;;;8367076;28;20260;-65
2023/08/14 18:15:08;;;;;;;6.90;4.30;;;21.30;99.90;;;;;;8374971;28;20250;-65
2023/08/14 18:19:09;;;;;;;5.60;3.97;;;21.10;99.90;;;;;;8352982;28;20454;-65
2023/08/14 18:23:10;;;;;;;4.50;3.97;;;21.00;99.90;;;;;;8356193;28;20200;-65
2023/08/14 18:27:10;;;;;;;4.73;4.33;;;20.90;99.90;;;;;;8371700;28;20205;-65
2023/08/14 18:31:11;;;;;;;3.77;3.47;;;20.80;99.90;;;;;;8349658;28;20242;-65
2023/08/14 18:35:12;;;;;;;4.13;3.83;;;20.70;99.90;;;;;;8352553;28;20177;-64
2023/08/14 18:39:15;;;;;;;4.37;3.87;;;20.60;99.90;;;;;;8361092;28;20197;-64
2023/08/14 18:43:16;;;;;;;4.37;3.97;;;20.40;99.90;;;;;;8350426;28;20283;-64
2023/08/14 18:47:16;;;;;;;6.70;4.60;;;20.40;99.90;;;;;;8363135;28;20216;-65
2023/08/14 18:51:17;;;;;;;5.33;4.83;;;20.40;99.90;;;;;;8353024;28;20188;-65
2023/08/14 18:55:18;;;;;;;5.77;5.27;;;20.30;99.90;;;;;;8369432;28;20211;-64
2023/08/14 18:59:22;;;;;;;6.97;6.27;;;20.40;99.90;;;;;;8353709;28;20287;-67
2023/08/14 19:03:23;;;;;;;7.80;6.23;;;20.40;99.90;;;;;;8331425;28;20186;-66
2023/08/14 19:07:24;;;;;;;6.80;6.17;;;20.40;99.90;;;;;;8349248;28;20231;-67
2023/08/14 19:11:25;;;;;;;7.63;6.83;;;20.30;99.90;;;;;;8354528;28;20197;-67
2023/08/14 19:15:29;;;;;;;8.13;7.33;;;20.20;99.90;;;;;;8352867;28;20201;-67
2023/08/14 19:19:30;;;;;;;19.97;17.13;;;20.10;99.90;;;;;;8368300;28;20208;-67
2023/08/14 19:23:30;;;;;;;13.30;12.07;;;20.00;99.90;;;;;;8357507;28;20197;-67
2023/08/14 19:27:31;;;;;;;13.67;12.27;;;19.90;99.90;;;;;;8355519;28;20215;-67
2023/08/14 19:31:34;;;;;;;12.83;11.53;;;19.90;99.90;;;;;;8354162;28;20324;-67
2023/08/14 19:35:35;;;;;;;11.00;10.03;;;19.80;99.90;;;;;;8355148;28;20482;-67
2023/08/14 19:39:35;;;;;;;7.83;7.13;;;19.80;99.90;;;;;;8372206;28;20215;-68
2023/08/14 19:43:36;;;;;;;6.83;6.23;;;19.70;99.90;;;;;;8360226;28;20211;-67
2023/08/14 19:47:37;;;;;;;6.30;5.80;;;19.60;99.90;;;;;;8359331;28;20312;-67
2023/08/14 19:51:37;;;;;;;6.00;5.50;;;19.50;99.90;;;;;;8360613;28;20184;-68
2023/08/14 19:55:38;;;;;;;8.03;7.33;;;19.50;99.90;;;;;;8352309;28;20211;-68
2023/08/14 19:59:39;;;;;;;6.90;6.20;;;19.50;99.90;;;;;;8362167;28;21490;-67
2023/08/14 20:03:42;;;;;;;5.37;4.97;;;19.50;99.90;;;;;;8368264;28;20442;-68
2023/08/14 20:07:43;;;;;;;5.87;5.37;;;19.40;99.90;;;;;;8376415;28;20238;-68
2023/08/14 20:11:44;;;;;;;7.17;6.57;;;19.40;99.90;;;;;;8379299;28;20312;-67
2023/08/14 20:15:46;;;;;;;6.83;6.17;;;19.30;99.90;;;;;;8367271;28;20197;-68
2023/08/14 20:19:48;;;;;;;7.10;6.40;;;19.30;99.90;;;;;;8357600;28;20192;-65
2023/08/14 20:23:48;;;;;;;7.77;7.07;;;19.30;99.90;;;;;;8357181;28;20193;-65
2023/08/14 20:27:49;;;;;;;9.80;8.63;;;19.30;99.90;;;;;;8359924;28;20248;-66
2023/08/14 20:31:50;;;;;;;10.67;9.00;;;19.30;99.90;;;;;;8361453;28;20181;-67
2023/08/14 20:35:52;;;;;;;10.43;8.77;;;19.30;99.90;;;;;;8363533;28;20208;-67
2023/08/14 20:39:53;;;;;;;8.93;8.03;;;19.30;99.90;;;;;;8356185;28;20219;-66
2023/08/14 20:43:53;;;;;;;7.83;7.13;;;19.20;99.90;;;;;;8362330;28;20395;-66
2023/08/14 20:47:54;;;;;;;7.13;6.43;;;19.20;99.90;;;;;;8358896;28;20271;-67
2023/08/14 20:51:55;;;;;;;7.47;6.80;;;19.10;99.90;;;;;;8353500;28;20209;-67
2023/08/14 20:56:03;;;;;;;7.50;6.73;;;19.00;99.90;;;;;;8358839;28;20204;-67
2023/08/14 21:00:04;;;;;;;14.20;11.63;;;19.00;99.90;;;;;;8358160;28;20197;-67
2023/08/14 21:04:05;;;;;;;11.83;9.80;;;19.10;99.90;;;;;;8357883;28;20288;-67
2023/08/14 21:08:06;;;;;;;9.03;8.13;;;19.00;99.90;;;;;;8364190;28;20224;-66
2023/08/14 21:12:07;;;;;;;8.13;7.33;;;19.00;99.90;;;;;;8359016;28;20208;-67
2023/08/14 21:16:08;;;;;;;7.60;6.80;;;19.00;99.90;;;;;;8359507;28;20188;-68
2023/08/14 21:20:09;;;;;;;10.67;7.23;;;18.80;99.90;;;;;;8356641;28;20216;-66
2023/08/14 21:24:09;;;;;;;15.13;9.20;;;18.80;99.90;;;;;;8357213;28;20185;-67
2023/08/14 21:28:10;;;;;;;10.23;9.23;;;18.70;99.90;;;;;;8354847;28;20205;-66
2023/08/14 21:32:11;;;;;;;9.03;8.20;;;18.70;99.90;;;;;;8356775;28;20189;-66
2023/08/14 21:36:12;;;;;;;8.80;8.00;;;18.70;99.90;;;;;;8363127;28;20197;-66
2023/08/14 21:40:12;;;;;;;7.60;6.80;;;18.60;99.90;;;;;;8369969;28;20181;-66
2023/08/14 21:44:13;;;;;;;10.03;7.73;;;18.60;99.90;;;;;;8359071;28;20188;-67